sensor_id;sensor_type;location;lat;lon;timestamp;P1;durP1;ratioP1;P2;durP2;ratioP2
21183;SDS011;18176;49.502;11.754;2023-02-15T00:02:33;68.70;;;16.20;;
21183;SDS011;18176;49.502;11.754;2023-02-15T00:06:37;121.43;;;16.67;;
21183;SDS011;18176;49.502;11.754;2023-02-15T00:10:38;161.87;;;17.10;;
21183;SDS011;18176;49.502;11.754;2023-02-15T00:14:42;35.50;;;13.77;;
21183;SDS011;18176;49.502;11.754;2023-02-15T00:18:42;337.13;;;23.13;;
21183;SDS011;18176;49.502;11.754;2023-02-15T00:22:42;111.03;;;15.60;;
21183;SDS011;18176;49.502;11.754;2023-02-15T00:26:44;109.60;;;14.10;;
21183;SDS011;18176;49.502;11.754;2023-02-15T00:30:50;88.60;;;14.57;;
21183;SDS011;18176;49.502;11.754;2023-02-15T00:34:51;182.87;;;16.53;;
21183;SDS011;18176;49.502;11.754;2023-02-15T00:38:53;112.53;;;14.17;;
21183;SDS011;18176;49.502;11.754;2023-02-15T00:42:53;118.40;;;15.63;;
21183;SDS011;18176;49.502;11.754;2023-02-15T00:46:57;221.83;;;19.73;;
21183;SDS011;18176;49.502;11.754;2023-02-15T00:50:59;71.20;;;14.20;;
21183;SDS011;18176;49.502;11.754;2023-02-15T00:55:00;102.27;;;15.03;;
21183;SDS011;18176;49.502;11.754;2023-02-15T00:59:01;149.73;;;14.57;;
21183;SDS011;18176;49.502;11.754;2023-02-15T01:03:05;145.33;;;13.60;;
21183;SDS011;18176;49.502;11.754;2023-02-15T01:07:06;62.30;;;11.57;;
21183;SDS011;18176;49.502;11.754;2023-02-15T01:11:07;219.43;;;15.93;;
21183;SDS011;18176;49.502;11.754;2023-02-15T01:15:11;135.50;;;12.90;;
21183;SDS011;18176;49.502;11.754;2023-02-15T01:19:15;78.63;;;11.20;;
21183;SDS011;18176;49.502;11.754;2023-02-15T01:23:16;98.20;;;11.70;;
21183;SDS011;18176;49.502;11.754;2023-02-15T01:27:16;161.07;;;12.47;;
21183;SDS011;18176;49.502;11.754;2023-02-15T01:31:18;72.63;;;10.73;;
21183;SDS011;18176;49.502;11.754;2023-02-15T01:35:23;53.00;;;10.50;;
21183;SDS011;18176;49.502;11.754;2023-02-15T01:39:24;99.13;;;11.43;;
21183;SDS011;18176;49.502;11.754;2023-02-15T01:43:38;139.53;;;12.63;;
21183;SDS011;18176;49.502;11.754;2023-02-15T01:47:41;170.20;;;13.20;;
21183;SDS011;18176;49.502;11.754;2023-02-15T01:51:49;200.33;;;13.47;;
21183;SDS011;18176;49.502;11.754;2023-02-15T01:55:54;179.30;;;13.97;;
21183;SDS011;18176;49.502;11.754;2023-02-15T02:00:00;119.23;;;11.30;;
21183;SDS011;18176;49.502;11.754;2023-02-15T02:04:09;84.90;;;11.50;;
21183;SDS011;18176;49.502;11.754;2023-02-15T02:08:19;37.93;;;10.27;;
21183;SDS011;18176;49.502;11.754;2023-02-15T02:12:20;155.67;;;13.17;;
21183;SDS011;18176;49.502;11.754;2023-02-15T02:16:23;94.63;;;12.73;;
21183;SDS011;18176;49.502;11.754;2023-02-15T02:20:51;71.37;;;10.50;;
21183;SDS011;18176;49.502;11.754;2023-02-15T02:25:16;58.73;;;11.50;;
21183;SDS011;18176;49.502;11.754;2023-02-15T02:29:55;96.03;;;11.73;;
21183;SDS011;18176;49.502;11.754;2023-02-15T02:34:53;74.13;;;11.63;;
21183;SDS011;18176;49.502;11.754;2023-02-15T02:39:12;146.07;;;14.67;;
21183;SDS011;18176;49.502;11.754;2023-02-15T02:43:29;63.50;;;11.90;;
21183;SDS011;18176;49.502;11.754;2023-02-15T02:47:38;120.03;;;12.13;;
21183;SDS011;18176;49.502;11.754;2023-02-15T02:51:57;107.07;;;13.03;;
21183;SDS011;18176;49.502;11.754;2023-02-15T02:56:05;44.87;;;10.50;;
21183;SDS011;18176;49.502;11.754;2023-02-15T03:00:20;89.03;;;12.33;;
21183;SDS011;18176;49.502;11.754;2023-02-15T03:04:23;218.60;;;15.83;;
21183;SDS011;18176;49.502;11.754;2023-02-15T03:08:36;121.00;;;12.73;;
21183;SDS011;18176;49.502;11.754;2023-02-15T03:12:44;40.77;;;12.07;;
21183;SDS011;18176;49.502;11.754;2023-02-15T03:16:46;94.73;;;13.10;;
21183;SDS011;18176;49.502;11.754;2023-02-15T03:20:51;149.40;;;12.20;;
21183;SDS011;18176;49.502;11.754;2023-02-15T03:24:58;105.03;;;11.83;;
21183;SDS011;18176;49.502;11.754;2023-02-15T03:29:06;129.93;;;13.30;;
21183;SDS011;18176;49.502;11.754;2023-02-15T03:33:09;62.83;;;11.60;;
21183;SDS011;18176;49.502;11.754;2023-02-15T03:37:13;75.20;;;11.77;;
21183;SDS011;18176;49.502;11.754;2023-02-15T03:41:30;159.60;;;14.53;;
21183;SDS011;18176;49.502;11.754;2023-02-15T03:45:36;25.93;;;11.73;;
21183;SDS011;18176;49.502;11.754;2023-02-15T03:49:53;105.67;;;15.50;;
21183;SDS011;18176;49.502;11.754;2023-02-15T03:54:21;56.87;;;12.97;;
21183;SDS011;18176;49.502;11.754;2023-02-15T03:58:40;64.87;;;13.53;;
21183;SDS011;18176;49.502;11.754;2023-02-15T04:07:19;140.47;;;15.10;;
21183;SDS011;18176;49.502;11.754;2023-02-15T04:11:20;34.07;;;12.17;;
21183;SDS011;18176;49.502;11.754;2023-02-15T04:15:21;41.87;;;12.90;;
21183;SDS011;18176;49.502;11.754;2023-02-15T04:19:33;61.03;;;14.10;;
21183;SDS011;18176;49.502;11.754;2023-02-15T04:23:46;40.93;;;14.00;;
21183;SDS011;18176;49.502;11.754;2023-02-15T04:27:59;114.43;;;13.03;;
21183;SDS011;18176;49.502;11.754;2023-02-15T04:32:03;29.03;;;12.57;;
21183;SDS011;18176;49.502;11.754;2023-02-15T04:36:04;47.43;;;12.97;;
21183;SDS011;18176;49.502;11.754;2023-02-15T04:40:06;53.40;;;14.00;;
21183;SDS011;18176;49.502;11.754;2023-02-15T04:44:09;65.80;;;13.97;;
21183;SDS011;18176;49.502;11.754;2023-02-15T04:48:12;64.10;;;13.97;;
21183;SDS011;18176;49.502;11.754;2023-02-15T04:52:14;39.50;;;12.10;;
21183;SDS011;18176;49.502;11.754;2023-02-15T04:56:16;82.37;;;13.90;;
21183;SDS011;18176;49.502;11.754;2023-02-15T05:00:16;53.40;;;13.33;;
21183;SDS011;18176;49.502;11.754;2023-02-15T05:04:23;39.67;;;10.63;;
21183;SDS011;18176;49.502;11.754;2023-02-15T05:08:23;38.60;;;12.17;;
21183;SDS011;18176;49.502;11.754;2023-02-15T05:12:25;35.33;;;11.00;;
21183;SDS011;18176;49.502;11.754;2023-02-15T05:16:26;50.63;;;11.87;;
21183;SDS011;18176;49.502;11.754;2023-02-15T05:20:29;55.03;;;11.27;;
21183;SDS011;18176;49.502;11.754;2023-02-15T05:24:31;48.97;;;12.27;;
21183;SDS011;18176;49.502;11.754;2023-02-15T05:28:44;34.20;;;11.23;;
21183;SDS011;18176;49.502;11.754;2023-02-15T05:32:44;40.57;;;11.37;;
21183;SDS011;18176;49.502;11.754;2023-02-15T05:36:48;32.70;;;11.43;;
21183;SDS011;18176;49.502;11.754;2023-02-15T05:40:49;29.17;;;11.00;;
21183;SDS011;18176;49.502;11.754;2023-02-15T05:44:51;25.63;;;11.00;;
21183;SDS011;18176;49.502;11.754;2023-02-15T05:48:52;32.07;;;11.10;;
21183;SDS011;18176;49.502;11.754;2023-02-15T05:52:55;24.80;;;12.03;;
21183;SDS011;18176;49.502;11.754;2023-02-15T05:56:56;56.03;;;12.77;;
21183;SDS011;18176;49.502;11.754;2023-02-15T06:00:57;34.20;;;11.63;;
21183;SDS011;18176;49.502;11.754;2023-02-15T06:04:59;57.57;;;13.30;;
21183;SDS011;18176;49.502;11.754;2023-02-15T06:09:03;37.93;;;11.87;;
21183;SDS011;18176;49.502;11.754;2023-02-15T06:13:03;34.07;;;12.63;;
21183;SDS011;18176;49.502;11.754;2023-02-15T06:17:03;28.00;;;10.47;;
21183;SDS011;18176;49.502;11.754;2023-02-15T06:21:03;29.33;;;12.60;;
21183;SDS011;18176;49.502;11.754;2023-02-15T06:25:14;36.17;;;11.70;;
21183;SDS011;18176;49.502;11.754;2023-02-15T06:29:15;24.20;;;10.40;;
21183;SDS011;18176;49.502;11.754;2023-02-15T06:33:15;115.50;;;13.37;;
21183;SDS011;18176;49.502;11.754;2023-02-15T06:37:16;106.07;;;14.87;;
21183;SDS011;18176;49.502;11.754;2023-02-15T06:41:20;196.23;;;27.43;;
21183;SDS011;18176;49.502;11.754;2023-02-15T06:45:22;160.87;;;45.67;;
21183;SDS011;18176;49.502;11.754;2023-02-15T06:49:22;122.97;;;18.47;;
21183;SDS011;18176;49.502;11.754;2023-02-15T06:53:23;137.03;;;27.03;;
21183;SDS011;18176;49.502;11.754;2023-02-15T06:57:26;142.57;;;31.80;;
21183;SDS011;18176;49.502;11.754;2023-02-15T07:01:26;149.07;;;28.30;;
21183;SDS011;18176;49.502;11.754;2023-02-15T07:05:27;53.13;;;16.93;;
21183;SDS011;18176;49.502;11.754;2023-02-15T07:09:28;52.13;;;13.80;;
21183;SDS011;18176;49.502;11.754;2023-02-15T07:13:31;71.77;;;14.83;;
21183;SDS011;18176;49.502;11.754;2023-02-15T07:17:33;178.27;;;14.73;;
21183;SDS011;18176;49.502;11.754;2023-02-15T07:21:33;146.50;;;17.17;;
21183;SDS011;18176;49.502;11.754;2023-02-15T07:25:34;116.77;;;14.43;;
21183;SDS011;18176;49.502;11.754;2023-02-15T07:29:37;48.07;;;13.13;;
21183;SDS011;18176;49.502;11.754;2023-02-15T07:33:37;58.13;;;13.70;;
21183;SDS011;18176;49.502;11.754;2023-02-15T07:37:38;80.53;;;13.13;;
21183;SDS011;18176;49.502;11.754;2023-02-15T07:41:38;68.10;;;12.57;;
21183;SDS011;18176;49.502;11.754;2023-02-15T07:45:43;60.10;;;12.90;;
21183;SDS011;18176;49.502;11.754;2023-02-15T07:49:44;69.47;;;14.03;;
21183;SDS011;18176;49.502;11.754;2023-02-15T07:53:45;102.10;;;13.17;;
21183;SDS011;18176;49.502;11.754;2023-02-15T07:57:48;30.27;;;10.77;;
21183;SDS011;18176;49.502;11.754;2023-02-15T08:01:53;48.10;;;11.63;;
21183;SDS011;18176;49.502;11.754;2023-02-15T08:05:55;44.03;;;11.60;;
21183;SDS011;18176;49.502;11.754;2023-02-15T08:09:58;50.70;;;12.40;;
21183;SDS011;18176;49.502;11.754;2023-02-15T08:13:59;40.47;;;12.60;;
21183;SDS011;18176;49.502;11.754;2023-02-15T08:18:04;34.83;;;12.77;;
21183;SDS011;18176;49.502;11.754;2023-02-15T08:22:05;26.07;;;12.47;;
21183;SDS011;18176;49.502;11.754;2023-02-15T08:26:07;24.93;;;11.93;;
21183;SDS011;18176;49.502;11.754;2023-02-15T08:30:08;38.67;;;11.20;;
21183;SDS011;18176;49.502;11.754;2023-02-15T08:34:14;31.50;;;10.70;;
21183;SDS011;18176;49.502;11.754;2023-02-15T08:38:17;21.87;;;10.93;;
21183;SDS011;18176;49.502;11.754;2023-02-15T08:42:18;22.47;;;10.67;;
21183;SDS011;18176;49.502;11.754;2023-02-15T08:46:20;24.40;;;10.40;;
21183;SDS011;18176;49.502;11.754;2023-02-15T08:50:26;22.23;;;11.10;;
21183;SDS011;18176;49.502;11.754;2023-02-15T08:54:27;30.33;;;10.37;;
21183;SDS011;18176;49.502;11.754;2023-02-15T08:58:28;20.83;;;10.97;;
21183;SDS011;18176;49.502;11.754;2023-02-15T09:02:30;21.13;;;10.80;;
21183;SDS011;18176;49.502;11.754;2023-02-15T09:06:33;20.30;;;10.37;;
21183;SDS011;18176;49.502;11.754;2023-02-15T09:10:34;20.43;;;10.33;;
21183;SDS011;18176;49.502;11.754;2023-02-15T09:14:34;21.67;;;10.77;;
21183;SDS011;18176;49.502;11.754;2023-02-15T09:18:36;22.43;;;10.83;;
21183;SDS011;18176;49.502;11.754;2023-02-15T09:22:40;19.87;;;10.50;;
21183;SDS011;18176;49.502;11.754;2023-02-15T09:26:44;18.07;;;9.73;;
21183;SDS011;18176;49.502;11.754;2023-02-15T09:30:46;18.83;;;9.70;;
21183;SDS011;18176;49.502;11.754;2023-02-15T09:34:47;18.57;;;9.77;;
21183;SDS011;18176;49.502;11.754;2023-02-15T09:38:55;19.13;;;10.33;;
21183;SDS011;18176;49.502;11.754;2023-02-15T09:43:04;21.60;;;9.37;;
21183;SDS011;18176;49.502;11.754;2023-02-15T09:47:32;18.10;;;9.37;;
21183;SDS011;18176;49.502;11.754;2023-02-15T09:56:52;15.50;;;8.80;;
21183;SDS011;18176;49.502;11.754;2023-02-15T10:01:01;16.63;;;9.40;;
21183;SDS011;18176;49.502;11.754;2023-02-15T10:05:15;15.67;;;8.70;;
21183;SDS011;18176;49.502;11.754;2023-02-15T10:09:44;20.97;;;11.40;;
21183;SDS011;18176;49.502;11.754;2023-02-15T10:14:06;19.10;;;10.17;;
21183;SDS011;18176;49.502;11.754;2023-02-15T10:18:50;18.73;;;10.37;;
21183;SDS011;18176;49.502;11.754;2023-02-15T10:23:06;16.07;;;9.00;;
21183;SDS011;18176;49.502;11.754;2023-02-15T10:27:32;14.10;;;8.60;;
21183;SDS011;18176;49.502;11.754;2023-02-15T10:31:48;16.80;;;9.63;;
21183;SDS011;18176;49.502;11.754;2023-02-15T10:35:53;15.97;;;9.33;;
21183;SDS011;18176;49.502;11.754;2023-02-15T10:40:10;16.97;;;8.67;;
21183;SDS011;18176;49.502;11.754;2023-02-15T10:44:30;16.53;;;9.37;;
21183;SDS011;18176;49.502;11.754;2023-02-15T10:53:26;16.40;;;9.10;;
21183;SDS011;18176;49.502;11.754;2023-02-15T10:57:44;17.97;;;9.27;;
21183;SDS011;18176;49.502;11.754;2023-02-15T11:02:04;19.73;;;10.40;;
21183;SDS011;18176;49.502;11.754;2023-02-15T11:06:25;18.73;;;10.53;;
21183;SDS011;18176;49.502;11.754;2023-02-15T11:10:28;21.33;;;11.20;;
21183;SDS011;18176;49.502;11.754;2023-02-15T11:14:38;19.10;;;10.37;;
21183;SDS011;18176;49.502;11.754;2023-02-15T11:18:53;18.37;;;10.03;;
21183;SDS011;18176;49.502;11.754;2023-02-15T11:23:07;18.70;;;10.47;;
21183;SDS011;18176;49.502;11.754;2023-02-15T11:27:19;21.67;;;11.57;;
21183;SDS011;18176;49.502;11.754;2023-02-15T11:31:24;21.73;;;11.30;;
21183;SDS011;18176;49.502;11.754;2023-02-15T11:35:42;19.40;;;10.10;;
21183;SDS011;18176;49.502;11.754;2023-02-15T11:39:54;19.07;;;11.03;;
21183;SDS011;18176;49.502;11.754;2023-02-15T11:43:55;17.93;;;9.90;;
21183;SDS011;18176;49.502;11.754;2023-02-15T11:48:08;16.70;;;9.37;;
21183;SDS011;18176;49.502;11.754;2023-02-15T11:52:12;20.30;;;11.07;;
21183;SDS011;18176;49.502;11.754;2023-02-15T11:56:20;20.67;;;11.03;;
21183;SDS011;18176;49.502;11.754;2023-02-15T12:00:27;24.17;;;13.20;;
21183;SDS011;18176;49.502;11.754;2023-02-15T12:04:36;21.13;;;10.57;;
21183;SDS011;18176;49.502;11.754;2023-02-15T12:08:45;27.80;;;15.10;;
21183;SDS011;18176;49.502;11.754;2023-02-15T12:17:15;19.87;;;10.87;;
21183;SDS011;18176;49.502;11.754;2023-02-15T12:21:23;21.27;;;11.20;;
21183;SDS011;18176;49.502;11.754;2023-02-15T12:25:30;18.93;;;10.43;;
21183;SDS011;18176;49.502;11.754;2023-02-15T12:29:42;21.47;;;11.47;;
21183;SDS011;18176;49.502;11.754;2023-02-15T12:33:49;20.20;;;11.60;;
21183;SDS011;18176;49.502;11.754;2023-02-15T12:37:54;20.67;;;11.60;;
21183;SDS011;18176;49.502;11.754;2023-02-15T12:42:03;19.67;;;11.57;;
21183;SDS011;18176;49.502;11.754;2023-02-15T12:46:20;20.60;;;11.47;;
21183;SDS011;18176;49.502;11.754;2023-02-15T12:50:23;20.57;;;12.10;;
21183;SDS011;18176;49.502;11.754;2023-02-15T12:54:33;20.30;;;12.20;;
21183;SDS011;18176;49.502;11.754;2023-02-15T12:58:39;21.27;;;12.17;;
21183;SDS011;18176;49.502;11.754;2023-02-15T13:02:46;19.90;;;11.17;;
21183;SDS011;18176;49.502;11.754;2023-02-15T13:06:50;20.07;;;12.20;;
21183;SDS011;18176;49.502;11.754;2023-02-15T13:10:54;21.87;;;11.93;;
21183;SDS011;18176;49.502;11.754;2023-02-15T13:14:59;19.77;;;11.63;;
21183;SDS011;18176;49.502;11.754;2023-02-15T13:19:06;17.33;;;10.60;;
21183;SDS011;18176;49.502;11.754;2023-02-15T13:23:19;21.30;;;12.77;;
21183;SDS011;18176;49.502;11.754;2023-02-15T13:27:28;21.90;;;12.80;;
21183;SDS011;18176;49.502;11.754;2023-02-15T13:31:38;21.53;;;12.47;;
21183;SDS011;18176;49.502;11.754;2023-02-15T13:35:43;21.10;;;12.07;;
21183;SDS011;18176;49.502;11.754;2023-02-15T13:39:56;23.77;;;13.73;;
21183;SDS011;18176;49.502;11.754;2023-02-15T13:44:09;30.53;;;17.90;;
21183;SDS011;18176;49.502;11.754;2023-02-15T13:48:23;32.93;;;18.33;;
21183;SDS011;18176;49.502;11.754;2023-02-15T13:52:51;22.13;;;13.53;;
21183;SDS011;18176;49.502;11.754;2023-02-15T13:56:59;24.10;;;13.33;;
21183;SDS011;18176;49.502;11.754;2023-02-15T14:01:28;26.63;;;14.60;;
21183;SDS011;18176;49.502;11.754;2023-02-15T14:05:47;24.60;;;13.30;;
21183;SDS011;18176;49.502;11.754;2023-02-15T14:10:21;21.93;;;12.77;;
21183;SDS011;18176;49.502;11.754;2023-02-15T14:14:44;23.63;;;13.37;;
21183;SDS011;18176;49.502;11.754;2023-02-15T14:19:11;21.10;;;12.47;;
21183;SDS011;18176;49.502;11.754;2023-02-15T14:23:28;22.67;;;12.87;;
21183;SDS011;18176;49.502;11.754;2023-02-15T14:27:47;22.43;;;13.10;;
21183;SDS011;18176;49.502;11.754;2023-02-15T14:32:00;22.63;;;12.87;;
21183;SDS011;18176;49.502;11.754;2023-02-15T14:36:13;23.17;;;13.70;;
21183;SDS011;18176;49.502;11.754;2023-02-15T14:40:22;24.60;;;13.93;;
21183;SDS011;18176;49.502;11.754;2023-02-15T14:44:49;21.63;;;13.23;;
21183;SDS011;18176;49.502;11.754;2023-02-15T14:49:03;28.90;;;17.07;;
21183;SDS011;18176;49.502;11.754;2023-02-15T14:57:38;28.20;;;15.53;;
21183;SDS011;18176;49.502;11.754;2023-02-15T15:01:41;23.30;;;13.23;;
21183;SDS011;18176;49.502;11.754;2023-02-15T15:05:55;21.90;;;13.30;;
21183;SDS011;18176;49.502;11.754;2023-02-15T15:10:02;30.03;;;17.03;;
21183;SDS011;18176;49.502;11.754;2023-02-15T15:14:39;24.10;;;14.10;;
21183;SDS011;18176;49.502;11.754;2023-02-15T15:18:45;22.40;;;12.33;;
21183;SDS011;18176;49.502;11.754;2023-02-15T15:22:48;23.47;;;12.97;;
21183;SDS011;18176;49.502;11.754;2023-02-15T15:26:49;26.07;;;14.20;;
21183;SDS011;18176;49.502;11.754;2023-02-15T15:31:41;25.97;;;14.93;;
21183;SDS011;18176;49.502;11.754;2023-02-15T15:35:55;22.87;;;14.23;;
21183;SDS011;18176;49.502;11.754;2023-02-15T15:45:22;25.50;;;14.60;;
21183;SDS011;18176;49.502;11.754;2023-02-15T15:49:59;27.17;;;16.30;;
21183;SDS011;18176;49.502;11.754;2023-02-15T15:54:03;25.30;;;14.93;;
21183;SDS011;18176;49.502;11.754;2023-02-15T15:58:05;27.67;;;14.87;;
21183;SDS011;18176;49.502;11.754;2023-02-15T16:02:07;26.83;;;15.63;;
21183;SDS011;18176;49.502;11.754;2023-02-15T16:06:25;29.97;;;16.43;;
21183;SDS011;18176;49.502;11.754;2023-02-15T16:10:31;26.97;;;15.93;;
21183;SDS011;18176;49.502;11.754;2023-02-15T16:14:35;28.67;;;15.63;;
21183;SDS011;18176;49.502;11.754;2023-02-15T16:18:38;32.03;;;17.97;;
21183;SDS011;18176;49.502;11.754;2023-02-15T16:22:39;44.17;;;22.33;;
21183;SDS011;18176;49.502;11.754;2023-02-15T16:26:47;30.47;;;16.90;;
21183;SDS011;18176;49.502;11.754;2023-02-15T16:31:30;44.40;;;22.37;;
21183;SDS011;18176;49.502;11.754;2023-02-15T16:35:31;35.03;;;18.90;;
21183;SDS011;18176;49.502;11.754;2023-02-15T16:39:32;32.67;;;17.93;;
21183;SDS011;18176;49.502;11.754;2023-02-15T16:43:44;129.83;;;47.53;;
21183;SDS011;18176;49.502;11.754;2023-02-15T16:47:49;48.33;;;22.60;;
21183;SDS011;18176;49.502;11.754;2023-02-15T16:51:59;31.60;;;17.10;;
21183;SDS011;18176;49.502;11.754;2023-02-15T16:56:04;31.67;;;16.97;;
21183;SDS011;18176;49.502;11.754;2023-02-15T17:00:14;38.03;;;20.37;;
21183;SDS011;18176;49.502;11.754;2023-02-15T17:04:26;29.37;;;17.10;;
21183;SDS011;18176;49.502;11.754;2023-02-15T17:08:31;38.03;;;20.77;;
21183;SDS011;18176;49.502;11.754;2023-02-15T17:12:44;43.47;;;22.97;;
21183;SDS011;18176;49.502;11.754;2023-02-15T17:16:53;39.33;;;20.03;;
21183;SDS011;18176;49.502;11.754;2023-02-15T17:21:01;36.93;;;19.80;;
21183;SDS011;18176;49.502;11.754;2023-02-15T17:25:14;37.90;;;19.80;;
21183;SDS011;18176;49.502;11.754;2023-02-15T17:29:26;40.83;;;20.37;;
21183;SDS011;18176;49.502;11.754;2023-02-15T17:33:38;39.77;;;20.93;;
21183;SDS011;18176;49.502;11.754;2023-02-15T17:37:43;43.27;;;21.77;;
21183;SDS011;18176;49.502;11.754;2023-02-15T17:41:46;47.30;;;23.83;;
21183;SDS011;18176;49.502;11.754;2023-02-15T17:45:49;47.57;;;22.90;;
21183;SDS011;18176;49.502;11.754;2023-02-15T17:49:54;42.70;;;22.40;;
21183;SDS011;18176;49.502;11.754;2023-02-15T17:53:56;42.87;;;22.17;;
21183;SDS011;18176;49.502;11.754;2023-02-15T17:58:12;48.83;;;22.40;;
21183;SDS011;18176;49.502;11.754;2023-02-15T18:02:19;51.37;;;21.40;;
21183;SDS011;18176;49.502;11.754;2023-02-15T18:06:35;35.57;;;18.63;;
21183;SDS011;18176;49.502;11.754;2023-02-15T18:10:53;40.00;;;19.70;;
21183;SDS011;18176;49.502;11.754;2023-02-15T18:15:10;41.60;;;21.57;;
21183;SDS011;18176;49.502;11.754;2023-02-15T18:19:12;51.13;;;25.23;;
21183;SDS011;18176;49.502;11.754;2023-02-15T18:23:21;49.93;;;24.17;;
21183;SDS011;18176;49.502;11.754;2023-02-15T18:27:21;40.73;;;20.07;;
21183;SDS011;18176;49.502;11.754;2023-02-15T18:31:22;33.00;;;17.40;;
21183;SDS011;18176;49.502;11.754;2023-02-15T18:35:24;34.83;;;18.50;;
21183;SDS011;18176;49.502;11.754;2023-02-15T18:39:33;38.37;;;18.77;;
21183;SDS011;18176;49.502;11.754;2023-02-15T18:43:41;48.50;;;19.43;;
21183;SDS011;18176;49.502;11.754;2023-02-15T18:47:44;40.77;;;19.13;;
21183;SDS011;18176;49.502;11.754;2023-02-15T18:51:46;44.20;;;19.17;;
21183;SDS011;18176;49.502;11.754;2023-02-15T18:55:49;65.50;;;21.80;;
21183;SDS011;18176;49.502;11.754;2023-02-15T18:59:50;57.20;;;23.97;;
21183;SDS011;18176;49.502;11.754;2023-02-15T19:03:50;52.47;;;21.50;;
21183;SDS011;18176;49.502;11.754;2023-02-15T19:07:52;56.70;;;23.70;;
21183;SDS011;18176;49.502;11.754;2023-02-15T19:11:56;68.23;;;30.47;;
21183;SDS011;18176;49.502;11.754;2023-02-15T19:16:00;49.00;;;24.67;;
21183;SDS011;18176;49.502;11.754;2023-02-15T19:20:01;69.23;;;31.57;;
21183;SDS011;18176;49.502;11.754;2023-02-15T19:24:05;128.53;;;55.30;;
21183;SDS011;18176;49.502;11.754;2023-02-15T19:28:17;60.70;;;23.27;;
21183;SDS011;18176;49.502;11.754;2023-02-15T19:32:28;85.83;;;39.77;;
21183;SDS011;18176;49.502;11.754;2023-02-15T19:36:35;59.40;;;25.33;;
21183;SDS011;18176;49.502;11.754;2023-02-15T19:40:36;69.70;;;26.77;;
21183;SDS011;18176;49.502;11.754;2023-02-15T19:44:40;52.67;;;23.97;;
21183;SDS011;18176;49.502;11.754;2023-02-15T19:48:40;46.07;;;21.40;;
21183;SDS011;18176;49.502;11.754;2023-02-15T19:52:41;58.97;;;23.80;;
21183;SDS011;18176;49.502;11.754;2023-02-15T19:56:42;77.63;;;24.33;;
21183;SDS011;18176;49.502;11.754;2023-02-15T20:00:46;58.97;;;22.50;;
21183;SDS011;18176;49.502;11.754;2023-02-15T20:04:50;67.90;;;23.17;;
21183;SDS011;18176;49.502;11.754;2023-02-15T20:08:50;67.43;;;24.00;;
21183;SDS011;18176;49.502;11.754;2023-02-15T20:12:58;71.77;;;24.40;;
21183;SDS011;18176;49.502;11.754;2023-02-15T20:17:03;59.13;;;22.90;;
21183;SDS011;18176;49.502;11.754;2023-02-15T20:21:05;54.50;;;22.63;;
21183;SDS011;18176;49.502;11.754;2023-02-15T20:25:15;57.17;;;25.20;;
21183;SDS011;18176;49.502;11.754;2023-02-15T20:29:21;53.40;;;24.20;;
21183;SDS011;18176;49.502;11.754;2023-02-15T20:33:24;58.40;;;24.10;;
21183;SDS011;18176;49.502;11.754;2023-02-15T20:37:26;61.87;;;26.17;;
21183;SDS011;18176;49.502;11.754;2023-02-15T20:41:31;51.00;;;22.53;;
21183;SDS011;18176;49.502;11.754;2023-02-15T20:45:35;59.90;;;23.77;;
21183;SDS011;18176;49.502;11.754;2023-02-15T20:49:38;56.33;;;23.90;;
21183;SDS011;18176;49.502;11.754;2023-02-15T20:53:39;58.20;;;24.20;;
21183;SDS011;18176;49.502;11.754;2023-02-15T20:57:41;51.53;;;22.43;;
21183;SDS011;18176;49.502;11.754;2023-02-15T21:01:42;74.70;;;27.67;;
21183;SDS011;18176;49.502;11.754;2023-02-15T21:05:47;56.20;;;24.47;;
21183;SDS011;18176;49.502;11.754;2023-02-15T21:09:49;59.63;;;24.90;;
21183;SDS011;18176;49.502;11.754;2023-02-15T21:13:49;58.43;;;25.77;;
21183;SDS011;18176;49.502;11.754;2023-02-15T21:17:50;60.53;;;23.97;;
21183;SDS011;18176;49.502;11.754;2023-02-15T21:21:55;51.37;;;23.47;;
21183;SDS011;18176;49.502;11.754;2023-02-15T21:25:57;106.70;;;21.17;;
21183;SDS011;18176;49.502;11.754;2023-02-15T21:29:58;133.17;;;21.87;;
21183;SDS011;18176;49.502;11.754;2023-02-15T21:34:02;90.27;;;23.17;;
21183;SDS011;18176;49.502;11.754;2023-02-15T21:38:09;122.10;;;25.90;;
21183;SDS011;18176;49.502;11.754;2023-02-15T21:42:13;63.57;;;22.90;;
21183;SDS011;18176;49.502;11.754;2023-02-15T21:46:26;82.87;;;22.60;;
21183;SDS011;18176;49.502;11.754;2023-02-15T21:50:39;83.30;;;23.13;;
21183;SDS011;18176;49.502;11.754;2023-02-15T21:54:56;58.73;;;21.77;;
21183;SDS011;18176;49.502;11.754;2023-02-15T21:58:58;57.27;;;22.90;;
21183;SDS011;18176;49.502;11.754;2023-02-15T22:02:59;71.87;;;22.80;;
21183;SDS011;18176;49.502;11.754;2023-02-15T22:07:00;81.23;;;23.03;;
21183;SDS011;18176;49.502;11.754;2023-02-15T22:11:07;48.53;;;20.93;;
21183;SDS011;18176;49.502;11.754;2023-02-15T22:15:16;58.90;;;20.77;;
21183;SDS011;18176;49.502;11.754;2023-02-15T22:19:19;69.00;;;21.70;;
21183;SDS011;18176;49.502;11.754;2023-02-15T22:23:19;67.30;;;21.50;;
21183;SDS011;18176;49.502;11.754;2023-02-15T22:27:24;49.33;;;20.87;;
21183;SDS011;18176;49.502;11.754;2023-02-15T22:31:27;52.83;;;21.00;;
21183;SDS011;18176;49.502;11.754;2023-02-15T22:35:29;41.80;;;20.70;;
21183;SDS011;18176;49.502;11.754;2023-02-15T22:39:32;45.87;;;21.97;;
21183;SDS011;18176;49.502;11.754;2023-02-15T22:43:37;52.40;;;20.87;;
21183;SDS011;18176;49.502;11.754;2023-02-15T22:47:40;44.30;;;20.17;;
21183;SDS011;18176;49.502;11.754;2023-02-15T22:51:40;47.37;;;20.80;;
21183;SDS011;18176;49.502;11.754;2023-02-15T22:55:42;42.90;;;19.30;;
21183;SDS011;18176;49.502;11.754;2023-02-15T22:59:48;45.40;;;19.47;;
21183;SDS011;18176;49.502;11.754;2023-02-15T23:03:48;47.03;;;19.43;;
21183;SDS011;18176;49.502;11.754;2023-02-15T23:07:49;40.57;;;18.90;;
21183;SDS011;18176;49.502;11.754;2023-02-15T23:11:50;49.10;;;20.00;;
21183;SDS011;18176;49.502;11.754;2023-02-15T23:15:56;42.23;;;20.27;;
21183;SDS011;18176;49.502;11.754;2023-02-15T23:19:59;45.73;;;20.67;;
21183;SDS011;18176;49.502;11.754;2023-02-15T23:24:08;40.13;;;18.97;;
21183;SDS011;18176;49.502;11.754;2023-02-15T23:28:18;41.53;;;19.23;;
21183;SDS011;18176;49.502;11.754;2023-02-15T23:32:27;43.80;;;19.30;;
21183;SDS011;18176;49.502;11.754;2023-02-15T23:36:30;41.63;;;19.43;;
21183;SDS011;18176;49.502;11.754;2023-02-15T23:40:32;42.23;;;19.80;;
21183;SDS011;18176;49.502;11.754;2023-02-15T23:44:46;45.40;;;19.93;;
21183;SDS011;18176;49.502;11.754;2023-02-15T23:48:51;48.17;;;21.00;;
21183;SDS011;18176;49.502;11.754;2023-02-15T23:52:52;45.43;;;20.67;;
21183;SDS011;18176;49.502;11.754;2023-02-15T23:56:57;44.07;;;20.23;;
